sensor_id;sensor_type;location;lat;lon;timestamp;pressure;altitude;pressure_sealevel;temperature;humidity
33454;BME280;39400;49.744;7.012;2023-04-26T00:00:42;96036.44;;;0.98;100.00
33454;BME280;39400;49.744;7.012;2023-04-26T00:03:07;96030.38;;;0.80;100.00
33454;BME280;39400;49.744;7.012;2023-04-26T00:05:33;96032.34;;;0.62;100.00
33454;BME280;39400;49.744;7.012;2023-04-26T00:07:58;96031.94;;;0.51;100.00
33454;BME280;39400;49.744;7.012;2023-04-26T00:10:23;96038.66;;;0.75;100.00
33454;BME280;39400;49.744;7.012;2023-04-26T00:12:49;96034.50;;;0.77;100.00
33454;BME280;39400;49.744;7.012;2023-04-26T00:15:14;96032.19;;;0.67;100.00
33454;BME280;39400;49.744;7.012;2023-04-26T00:17:39;96031.31;;;0.75;100.00
33454;BME280;39400;49.744;7.012;2023-04-26T00:20:05;96033.59;;;0.73;100.00
33454;BME280;39400;49.744;7.012;2023-04-26T00:22:30;96039.66;;;0.70;100.00
33454;BME280;39400;49.744;7.012;2023-04-26T00:24:56;96036.06;;;0.57;100.00
33454;BME280;39400;49.744;7.012;2023-04-26T00:27:21;96036.66;;;0.63;100.00
33454;BME280;39400;49.744;7.012;2023-04-26T00:29:46;96039.88;;;0.56;100.00
33454;BME280;39400;49.744;7.012;2023-04-26T00:32:12;96039.19;;;0.38;100.00
33454;BME280;39400;49.744;7.012;2023-04-26T00:34:37;96051.16;;;0.29;100.00
33454;BME280;39400;49.744;7.012;2023-04-26T00:37:03;96041.44;;;0.28;100.00
33454;BME280;39400;49.744;7.012;2023-04-26T00:39:29;96045.28;;;0.27;100.00
33454;BME280;39400;49.744;7.012;2023-04-26T00:41:55;96037.00;;;0.23;100.00
33454;BME280;39400;49.744;7.012;2023-04-26T00:44:20;96037.31;;;0.30;100.00
33454;BME280;39400;49.744;7.012;2023-04-26T00:46:47;96033.47;;;0.31;100.00
33454;BME280;39400;49.744;7.012;2023-04-26T00:49:15;96028.22;;;0.35;100.00
33454;BME280;39400;49.744;7.012;2023-04-26T00:51:44;96025.13;;;0.45;100.00
33454;BME280;39400;49.744;7.012;2023-04-26T00:54:11;96026.53;;;0.51;100.00
33454;BME280;39400;49.744;7.012;2023-04-26T00:56:37;96035.03;;;0.41;100.00
33454;BME280;39400;49.744;7.012;2023-04-26T00:59:03;96031.53;;;0.40;100.00
33454;BME280;39400;49.744;7.012;2023-04-26T01:01:28;96029.31;;;0.42;100.00
33454;BME280;39400;49.744;7.012;2023-04-26T01:03:54;96021.03;;;0.39;100.00
33454;BME280;39400;49.744;7.012;2023-04-26T01:06:19;96025.97;;;0.37;100.00
33454;BME280;39400;49.744;7.012;2023-04-26T01:08:45;96027.75;;;0.33;100.00
33454;BME280;39400;49.744;7.012;2023-04-26T01:11:11;96029.47;;;0.37;100.00
33454;BME280;39400;49.744;7.012;2023-04-26T01:13:37;96026.09;;;0.49;100.00
33454;BME280;39400;49.744;7.012;2023-04-26T01:16:03;96025.19;;;0.36;100.00
33454;BME280;39400;49.744;7.012;2023-04-26T01:18:28;96027.91;;;0.28;100.00
33454;BME280;39400;49.744;7.012;2023-04-26T01:20:54;96030.19;;;0.17;100.00
33454;BME280;39400;49.744;7.012;2023-04-26T01:23:20;96027.06;;;0.06;100.00
33454;BME280;39400;49.744;7.012;2023-04-26T01:25:45;96034.88;;;0.08;100.00
33454;BME280;39400;49.744;7.012;2023-04-26T01:28:11;96032.59;;;0.10;100.00
33454;BME280;39400;49.744;7.012;2023-04-26T01:30:36;96025.91;;;0.16;100.00
33454;BME280;39400;49.744;7.012;2023-04-26T01:33:01;96030.69;;;0.19;100.00
33454;BME280;39400;49.744;7.012;2023-04-26T01:35:27;96031.97;;;0.13;100.00
33454;BME280;39400;49.744;7.012;2023-04-26T01:37:52;96022.13;;;0.08;100.00
33454;BME280;39400;49.744;7.012;2023-04-26T01:40:19;96030.09;;;0.05;100.00
33454;BME280;39400;49.744;7.012;2023-04-26T01:42:44;96020.75;;;-0.07;100.00
33454;BME280;39400;49.744;7.012;2023-04-26T01:45:10;96018.13;;;-0.24;100.00
33454;BME280;39400;49.744;7.012;2023-04-26T01:47:54;96025.44;;;-0.33;100.00
33454;BME280;39400;49.744;7.012;2023-04-26T01:50:20;96022.75;;;-0.42;100.00
33454;BME280;39400;49.744;7.012;2023-04-26T01:52:45;96019.09;;;-0.37;100.00
33454;BME280;39400;49.744;7.012;2023-04-26T01:55:10;96021.47;;;-0.36;100.00
33454;BME280;39400;49.744;7.012;2023-04-26T01:57:36;96016.56;;;-0.42;100.00
33454;BME280;39400;49.744;7.012;2023-04-26T02:00:01;96019.59;;;-0.44;100.00
33454;BME280;39400;49.744;7.012;2023-04-26T02:02:38;96014.69;;;-0.51;100.00
33454;BME280;39400;49.744;7.012;2023-04-26T02:05:04;96025.09;;;-0.32;100.00
33454;BME280;39400;49.744;7.012;2023-04-26T02:07:29;96024.75;;;-0.13;100.00
33454;BME280;39400;49.744;7.012;2023-04-26T02:09:55;96019.16;;;0.01;100.00
33454;BME280;39400;49.744;7.012;2023-04-26T02:12:21;96022.22;;;-0.18;100.00
33454;BME280;39400;49.744;7.012;2023-04-26T02:14:47;96027.47;;;-0.21;100.00
33454;BME280;39400;49.744;7.012;2023-04-26T02:17:12;96030.53;;;-0.40;100.00
33454;BME280;39400;49.744;7.012;2023-04-26T02:19:37;96027.06;;;-0.50;100.00
33454;BME280;39400;49.744;7.012;2023-04-26T02:22:04;96020.06;;;-0.59;100.00
33454;BME280;39400;49.744;7.012;2023-04-26T02:24:29;96024.88;;;-0.82;100.00
33454;BME280;39400;49.744;7.012;2023-04-26T02:26:54;96024.25;;;-0.79;100.00
33454;BME280;39400;49.744;7.012;2023-04-26T02:29:20;96026.31;;;-0.76;100.00
33454;BME280;39400;49.744;7.012;2023-04-26T02:31:45;96023.44;;;-0.71;100.00
33454;BME280;39400;49.744;7.012;2023-04-26T02:34:11;96024.56;;;-0.72;100.00
33454;BME280;39400;49.744;7.012;2023-04-26T02:36:37;96025.66;;;-0.73;100.00
33454;BME280;39400;49.744;7.012;2023-04-26T02:39:02;96024.53;;;-0.55;100.00
33454;BME280;39400;49.744;7.012;2023-04-26T02:41:30;96023.91;;;-0.52;100.00
33454;BME280;39400;49.744;7.012;2023-04-26T02:43:56;96028.44;;;-0.35;100.00
33454;BME280;39400;49.744;7.012;2023-04-26T02:46:21;96025.78;;;-0.43;100.00
33454;BME280;39400;49.744;7.012;2023-04-26T02:48:47;96019.44;;;-0.47;100.00
33454;BME280;39400;49.744;7.012;2023-04-26T02:51:12;96018.19;;;-0.59;100.00
33454;BME280;39400;49.744;7.012;2023-04-26T02:53:37;96018.38;;;-0.73;100.00
33454;BME280;39400;49.744;7.012;2023-04-26T02:56:03;96018.34;;;-0.81;100.00
33454;BME280;39400;49.744;7.012;2023-04-26T02:58:28;96010.44;;;-0.86;100.00
33454;BME280;39400;49.744;7.012;2023-04-26T03:00:56;96023.94;;;-0.86;100.00
33454;BME280;39400;49.744;7.012;2023-04-26T03:03:21;96017.56;;;-0.90;100.00
33454;BME280;39400;49.744;7.012;2023-04-26T03:05:47;96013.31;;;-1.00;100.00
33454;BME280;39400;49.744;7.012;2023-04-26T03:08:12;96020.75;;;-1.06;100.00
33454;BME280;39400;49.744;7.012;2023-04-26T03:10:38;96011.38;;;-1.00;100.00
33454;BME280;39400;49.744;7.012;2023-04-26T03:13:04;96012.97;;;-0.90;100.00
33454;BME280;39400;49.744;7.012;2023-04-26T03:15:29;96002.97;;;-0.89;100.00
33454;BME280;39400;49.744;7.012;2023-04-26T03:17:54;95995.19;;;-0.91;100.00
33454;BME280;39400;49.744;7.012;2023-04-26T03:20:20;96002.50;;;-0.91;100.00
33454;BME280;39400;49.744;7.012;2023-04-26T03:22:46;95992.34;;;-0.86;100.00
33454;BME280;39400;49.744;7.012;2023-04-26T03:25:11;95990.44;;;-0.85;100.00
33454;BME280;39400;49.744;7.012;2023-04-26T03:27:36;95986.78;;;-0.89;100.00
33454;BME280;39400;49.744;7.012;2023-04-26T03:30:02;95985.19;;;-0.90;100.00
33454;BME280;39400;49.744;7.012;2023-04-26T03:32:28;95980.09;;;-0.92;100.00
33454;BME280;39400;49.744;7.012;2023-04-26T03:34:54;95982.81;;;-1.01;100.00
33454;BME280;39400;49.744;7.012;2023-04-26T03:37:20;95979.78;;;-1.08;100.00
33454;BME280;39400;49.744;7.012;2023-04-26T03:39:52;95981.22;;;-0.93;100.00
33454;BME280;39400;49.744;7.012;2023-04-26T03:42:20;95986.00;;;-0.90;100.00
33454;BME280;39400;49.744;7.012;2023-04-26T03:44:45;95995.34;;;-0.87;100.00
33454;BME280;39400;49.744;7.012;2023-04-26T03:47:11;95989.63;;;-0.77;100.00
33454;BME280;39400;49.744;7.012;2023-04-26T03:49:36;95987.84;;;-0.73;100.00
33454;BME280;39400;49.744;7.012;2023-04-26T03:52:01;95990.41;;;-0.77;100.00
33454;BME280;39400;49.744;7.012;2023-04-26T03:54:27;95992.31;;;-0.77;100.00
33454;BME280;39400;49.744;7.012;2023-04-26T03:56:53;95997.56;;;-0.72;100.00
33454;BME280;39400;49.744;7.012;2023-04-26T03:59:19;95987.22;;;-0.61;100.00
33454;BME280;39400;49.744;7.012;2023-04-26T04:01:44;95991.38;;;-0.90;100.00
33454;BME280;39400;49.744;7.012;2023-04-26T04:04:09;95990.72;;;-0.87;100.00
33454;BME280;39400;49.744;7.012;2023-04-26T04:06:35;95993.91;;;-0.76;100.00
33454;BME280;39400;49.744;7.012;2023-04-26T04:09:00;95986.91;;;-0.77;100.00
33454;BME280;39400;49.744;7.012;2023-04-26T04:11:26;95990.25;;;-0.80;100.00
33454;BME280;39400;49.744;7.012;2023-04-26T04:13:51;95990.25;;;-0.80;100.00
33454;BME280;39400;49.744;7.012;2023-04-26T04:16:16;95992.50;;;-0.82;100.00
33454;BME280;39400;49.744;7.012;2023-04-26T04:18:42;95990.41;;;-0.77;100.00
33454;BME280;39400;49.744;7.012;2023-04-26T04:21:07;95986.59;;;-0.67;100.00
33454;BME280;39400;49.744;7.012;2023-04-26T04:23:33;95984.03;;;-0.63;100.00
33454;BME280;39400;49.744;7.012;2023-04-26T04:26:00;95985.31;;;-0.61;100.00
33454;BME280;39400;49.744;7.012;2023-04-26T04:28:26;95990.56;;;-0.73;100.00
33454;BME280;39400;49.744;7.012;2023-04-26T04:30:54;95984.53;;;-0.87;100.00
33454;BME280;39400;49.744;7.012;2023-04-26T04:33:20;95988.03;;;-0.78;100.00
33454;BME280;39400;49.744;7.012;2023-04-26T04:35:45;95995.00;;;-0.77;100.00
33454;BME280;39400;49.744;7.012;2023-04-26T04:38:10;95994.69;;;-0.67;100.00
33454;BME280;39400;49.744;7.012;2023-04-26T04:40:36;96004.22;;;-0.61;100.00
33454;BME280;39400;49.744;7.012;2023-04-26T04:43:01;96001.66;;;-0.66;100.00
33454;BME280;39400;49.744;7.012;2023-04-26T04:45:28;96013.91;;;-0.68;100.00
33454;BME280;39400;49.744;7.012;2023-04-26T04:47:55;96016.91;;;-0.70;100.00
33454;BME280;39400;49.744;7.012;2023-04-26T04:50:20;96021.38;;;-0.74;100.00
33454;BME280;39400;49.744;7.012;2023-04-26T04:52:46;96017.22;;;-0.63;100.00
33454;BME280;39400;49.744;7.012;2023-04-26T04:55:11;96015.94;;;-0.57;100.00
33454;BME280;39400;49.744;7.012;2023-04-26T04:57:37;96017.19;;;-0.45;100.00
33454;BME280;39400;49.744;7.012;2023-04-26T05:00:03;96017.19;;;-0.45;100.00
33454;BME280;39400;49.744;7.012;2023-04-26T05:02:30;96018.16;;;-0.50;100.00
33454;BME280;39400;49.744;7.012;2023-04-26T05:04:56;96017.06;;;-0.58;100.00
33454;BME280;39400;49.744;7.012;2023-04-26T05:07:21;96017.03;;;-0.49;100.00
33454;BME280;39400;49.744;7.012;2023-04-26T05:09:50;96004.81;;;-0.46;100.00
33454;BME280;39400;49.744;7.012;2023-04-26T05:12:15;96010.50;;;-0.39;100.00
33454;BME280;39400;49.744;7.012;2023-04-26T05:14:41;96016.06;;;-0.27;100.00
33454;BME280;39400;49.744;7.012;2023-04-26T05:17:06;96019.34;;;-0.13;100.00
33454;BME280;39400;49.744;7.012;2023-04-26T05:19:32;96028.06;;;-0.07;100.00
33454;BME280;39400;49.744;7.012;2023-04-26T05:21:57;96029.25;;;0.13;100.00
33454;BME280;39400;49.744;7.012;2023-04-26T05:24:23;96026.69;;;0.25;100.00
33454;BME280;39400;49.744;7.012;2023-04-26T05:26:48;96033.41;;;0.49;100.00
33454;BME280;39400;49.744;7.012;2023-04-26T05:29:36;96039.91;;;0.47;100.00
33454;BME280;39400;49.744;7.012;2023-04-26T05:32:10;96033.84;;;0.51;100.00
33454;BME280;39400;49.744;7.012;2023-04-26T05:34:38;96041.25;;;0.62;100.00
33454;BME280;39400;49.744;7.012;2023-04-26T05:37:04;96040.56;;;0.74;100.00
33454;BME280;39400;49.744;7.012;2023-04-26T05:39:29;96044.22;;;0.78;100.00
33454;BME280;39400;49.744;7.012;2023-04-26T05:41:55;96035.06;;;0.91;100.00
33454;BME280;39400;49.744;7.012;2023-04-26T05:44:20;96038.03;;;0.99;100.00
33454;BME280;39400;49.744;7.012;2023-04-26T05:46:46;96038.75;;;1.08;100.00
33454;BME280;39400;49.744;7.012;2023-04-26T05:49:12;96035.09;;;1.04;100.00
33454;BME280;39400;49.744;7.012;2023-04-26T05:51:38;96042.56;;;1.07;100.00
33454;BME280;39400;49.744;7.012;2023-04-26T05:54:03;96038.06;;;1.11;100.00
33454;BME280;39400;49.744;7.012;2023-04-26T05:56:29;96034.53;;;1.19;100.00
33454;BME280;39400;49.744;7.012;2023-04-26T05:58:54;96042.28;;;1.41;100.00
33454;BME280;39400;49.744;7.012;2023-04-26T06:01:19;96046.31;;;1.56;100.00
33454;BME280;39400;49.744;7.012;2023-04-26T06:03:45;96048.06;;;1.73;100.00
33454;BME280;39400;49.744;7.012;2023-04-26T06:06:10;96045.75;;;1.84;100.00
33454;BME280;39400;49.744;7.012;2023-04-26T06:08:38;96039.13;;;2.06;100.00
33454;BME280;39400;49.744;7.012;2023-04-26T06:11:04;96036.91;;;2.32;100.00
33454;BME280;39400;49.744;7.012;2023-04-26T06:13:29;96036.69;;;2.50;100.00
33454;BME280;39400;49.744;7.012;2023-04-26T06:15:54;96036.22;;;2.60;100.00
33454;BME280;39400;49.744;7.012;2023-04-26T06:18:20;96045.03;;;2.69;100.00
33454;BME280;39400;49.744;7.012;2023-04-26T06:20:45;96046.38;;;2.63;100.00
33454;BME280;39400;49.744;7.012;2023-04-26T06:23:11;96053.72;;;2.62;100.00
33454;BME280;39400;49.744;7.012;2023-04-26T06:25:37;96053.06;;;2.53;100.00
33454;BME280;39400;49.744;7.012;2023-04-26T06:28:03;96047.31;;;2.43;100.00
33454;BME280;39400;49.744;7.012;2023-04-26T06:30:28;96052.47;;;2.35;100.00
33454;BME280;39400;49.744;7.012;2023-04-26T06:32:53;96052.59;;;2.27;100.00
33454;BME280;39400;49.744;7.012;2023-04-26T06:35:19;96056.31;;;2.22;100.00
33454;BME280;39400;49.744;7.012;2023-04-26T06:37:44;96056.53;;;2.17;100.00
33454;BME280;39400;49.744;7.012;2023-04-26T06:40:10;96059.72;;;2.19;100.00
33454;BME280;39400;49.744;7.012;2023-04-26T06:42:36;96051.34;;;2.24;100.00
33454;BME280;39400;49.744;7.012;2023-04-26T06:45:23;96055.41;;;2.30;100.00
33454;BME280;39400;49.744;7.012;2023-04-26T06:47:51;96056.22;;;2.31;100.00
33454;BME280;39400;49.744;7.012;2023-04-26T06:50:17;96053.63;;;2.47;100.00
33454;BME280;39400;49.744;7.012;2023-04-26T06:52:43;96055.66;;;2.62;100.00
33454;BME280;39400;49.744;7.012;2023-04-26T06:55:08;96056.56;;;2.78;100.00
33454;BME280;39400;49.744;7.012;2023-04-26T06:57:34;96054.84;;;2.98;100.00
33454;BME280;39400;49.744;7.012;2023-04-26T06:59:59;96053.28;;;3.38;100.00
33454;BME280;39400;49.744;7.012;2023-04-26T07:02:24;96046.38;;;3.68;100.00
33454;BME280;39400;49.744;7.012;2023-04-26T07:04:50;96039.41;;;3.83;100.00
33454;BME280;39400;49.744;7.012;2023-04-26T07:07:15;96048.03;;;4.01;100.00
33454;BME280;39400;49.744;7.012;2023-04-26T07:09:41;96046.72;;;4.11;100.00
33454;BME280;39400;49.744;7.012;2023-04-26T07:12:07;96046.81;;;4.14;100.00
33454;BME280;39400;49.744;7.012;2023-04-26T07:14:32;96048.88;;;4.33;100.00
33454;BME280;39400;49.744;7.012;2023-04-26T07:16:57;96052.63;;;4.60;100.00
33454;BME280;39400;49.744;7.012;2023-04-26T07:19:22;96051.22;;;4.66;100.00
33454;BME280;39400;49.744;7.012;2023-04-26T07:21:48;96044.19;;;4.65;100.00
33454;BME280;39400;49.744;7.012;2023-04-26T07:24:13;96037.50;;;4.79;100.00
33454;BME280;39400;49.744;7.012;2023-04-26T07:26:38;96033.72;;;4.67;100.00
33454;BME280;39400;49.744;7.012;2023-04-26T07:29:04;96034.50;;;4.84;100.00
33454;BME280;39400;49.744;7.012;2023-04-26T07:31:30;96036.44;;;4.99;100.00
33454;BME280;39400;49.744;7.012;2023-04-26T07:33:55;96033.25;;;4.97;100.00
33454;BME280;39400;49.744;7.012;2023-04-26T07:36:20;96037.28;;;5.03;100.00
33454;BME280;39400;49.744;7.012;2023-04-26T07:38:46;96044.69;;;5.22;100.00
33454;BME280;39400;49.744;7.012;2023-04-26T07:41:11;96044.63;;;5.18;100.00
33454;BME280;39400;49.744;7.012;2023-04-26T07:43:36;96048.03;;;5.31;100.00
33454;BME280;39400;49.744;7.012;2023-04-26T07:46:02;96042.94;;;5.49;100.00
33454;BME280;39400;49.744;7.012;2023-04-26T07:48:27;96045.03;;;5.75;100.00
33454;BME280;39400;49.744;7.012;2023-04-26T07:50:53;96045.03;;;5.94;100.00
33454;BME280;39400;49.744;7.012;2023-04-26T07:53:18;96045.84;;;6.18;95.15
33454;BME280;39400;49.744;7.012;2023-04-26T07:55:43;96048.13;;;6.58;92.06
33454;BME280;39400;49.744;7.012;2023-04-26T07:58:09;96049.03;;;6.43;89.42
33454;BME280;39400;49.744;7.012;2023-04-26T08:00:34;96048.59;;;6.41;88.37
33454;BME280;39400;49.744;7.012;2023-04-26T08:02:59;96045.38;;;6.58;86.49
33454;BME280;39400;49.744;7.012;2023-04-26T08:05:24;96044.16;;;6.56;86.72
33454;BME280;39400;49.744;7.012;2023-04-26T08:07:51;96050.97;;;6.65;85.81
33454;BME280;39400;49.744;7.012;2023-04-26T08:10:16;96051.09;;;6.73;86.27
33454;BME280;39400;49.744;7.012;2023-04-26T08:12:41;96046.03;;;6.75;79.98
33454;BME280;39400;49.744;7.012;2023-04-26T08:15:07;96048.91;;;6.59;77.59
33454;BME280;39400;49.744;7.012;2023-04-26T08:17:33;96048.97;;;6.62;78.60
33454;BME280;39400;49.744;7.012;2023-04-26T08:19:58;96048.56;;;6.87;80.25
33454;BME280;39400;49.744;7.012;2023-04-26T08:22:24;96047.31;;;7.07;80.22
33454;BME280;39400;49.744;7.012;2023-04-26T08:24:51;96051.63;;;7.35;75.91
33454;BME280;39400;49.744;7.012;2023-04-26T08:27:17;96055.22;;;7.43;77.09
33454;BME280;39400;49.744;7.012;2023-04-26T08:29:42;96051.78;;;7.49;80.40
33454;BME280;39400;49.744;7.012;2023-04-26T08:32:07;96060.19;;;7.63;80.59
33454;BME280;39400;49.744;7.012;2023-04-26T08:34:33;96060.78;;;7.50;76.78
33454;BME280;39400;49.744;7.012;2023-04-26T08:36:58;96060.16;;;7.60;75.44
33454;BME280;39400;49.744;7.012;2023-04-26T08:39:23;96060.84;;;7.27;76.18
33454;BME280;39400;49.744;7.012;2023-04-26T08:41:52;96062.56;;;7.35;76.47
33454;BME280;39400;49.744;7.012;2023-04-26T08:44:21;96054.00;;;7.40;76.94
33454;BME280;39400;49.744;7.012;2023-04-26T08:52:14;96038.72;;;7.66;74.78
33454;BME280;39400;49.744;7.012;2023-04-26T08:54:40;96043.50;;;7.76;75.97
33454;BME280;39400;49.744;7.012;2023-04-26T08:57:06;96048.31;;;7.86;77.26
33454;BME280;39400;49.744;7.012;2023-04-26T08:59:35;96049.41;;;7.78;79.11
33454;BME280;39400;49.744;7.012;2023-04-26T09:02:02;96045.97;;;7.84;79.88
33454;BME280;39400;49.744;7.012;2023-04-26T09:04:28;96050.00;;;7.94;80.39
33454;BME280;39400;49.744;7.012;2023-04-26T09:07:01;96043.47;;;8.40;78.66
33454;BME280;39400;49.744;7.012;2023-04-26T09:09:28;96051.66;;;8.02;78.60
33454;BME280;39400;49.744;7.012;2023-04-26T09:11:57;96045.91;;;8.15;79.64
33454;BME280;39400;49.744;7.012;2023-04-26T09:14:23;96045.25;;;8.25;78.07
33454;BME280;39400;49.744;7.012;2023-04-26T09:16:49;96046.41;;;8.27;78.28
33454;BME280;39400;49.744;7.012;2023-04-26T09:19:14;96045.34;;;8.73;78.22
33454;BME280;39400;49.744;7.012;2023-04-26T09:21:46;96035.97;;;8.81;79.13
33454;BME280;39400;49.744;7.012;2023-04-26T09:24:12;96034.59;;;8.53;82.41
33454;BME280;39400;49.744;7.012;2023-04-26T09:26:38;96045.44;;;8.87;77.21
33454;BME280;39400;49.744;7.012;2023-04-26T09:29:18;96046.31;;;8.17;77.09
33454;BME280;39400;49.744;7.012;2023-04-26T09:31:46;96039.69;;;8.18;78.46
33454;BME280;39400;49.744;7.012;2023-04-26T09:34:13;96041.78;;;8.31;75.23
33454;BME280;39400;49.744;7.012;2023-04-26T09:39:10;96045.34;;;7.98;77.18
33454;BME280;39400;49.744;7.012;2023-04-26T09:41:45;96033.69;;;8.05;75.56
33454;BME280;39400;49.744;7.012;2023-04-26T09:44:20;96038.34;;;8.01;77.21
33454;BME280;39400;49.744;7.012;2023-04-26T09:47:06;96033.94;;;8.30;76.24
33454;BME280;39400;49.744;7.012;2023-04-26T09:49:42;96036.34;;;8.35;75.63
33454;BME280;39400;49.744;7.012;2023-04-26T09:52:07;96038.06;;;8.50;76.08
33454;BME280;39400;49.744;7.012;2023-04-26T09:54:50;96040.50;;;8.59;73.92
33454;BME280;39400;49.744;7.012;2023-04-26T09:57:16;96035.50;;;8.31;74.18
33454;BME280;39400;49.744;7.012;2023-04-26T09:59:50;96033.31;;;8.06;74.08
33454;BME280;39400;49.744;7.012;2023-04-26T10:02:24;96035.44;;;8.24;72.16
33454;BME280;39400;49.744;7.012;2023-04-26T10:04:51;96023.50;;;8.39;71.68
33454;BME280;39400;49.744;7.012;2023-04-26T10:07:19;96034.22;;;8.58;75.18
33454;BME280;39400;49.744;7.012;2023-04-26T10:09:45;96024.97;;;8.74;74.47
33454;BME280;39400;49.744;7.012;2023-04-26T10:12:11;96028.78;;;8.62;69.79
33454;BME280;39400;49.744;7.012;2023-04-26T10:14:37;96030.28;;;8.52;68.57
33454;BME280;39400;49.744;7.012;2023-04-26T10:17:03;96024.44;;;8.57;68.81
33454;BME280;39400;49.744;7.012;2023-04-26T10:19:31;96019.34;;;9.08;69.95
33454;BME280;39400;49.744;7.012;2023-04-26T10:22:03;96013.38;;;8.98;70.47
33454;BME280;39400;49.744;7.012;2023-04-26T10:24:28;96024.78;;;8.52;68.65
33454;BME280;39400;49.744;7.012;2023-04-26T10:26:54;96008.91;;;8.31;69.24
33454;BME280;39400;49.744;7.012;2023-04-26T10:29:20;96000.88;;;8.49;68.73
33454;BME280;39400;49.744;7.012;2023-04-26T10:34:27;95992.16;;;8.88;70.11
33454;BME280;39400;49.744;7.012;2023-04-26T10:37:13;95985.94;;;8.91;68.30
33454;BME280;39400;49.744;7.012;2023-04-26T10:39:40;95982.41;;;8.94;69.19
33454;BME280;39400;49.744;7.012;2023-04-26T10:42:27;95991.53;;;9.13;66.83
33454;BME280;39400;49.744;7.012;2023-04-26T10:45:25;95992.63;;;8.97;67.59
33454;BME280;39400;49.744;7.012;2023-04-26T10:53:33;95987.22;;;9.12;70.35
33454;BME280;39400;49.744;7.012;2023-04-26T10:59:11;95978.47;;;9.75;71.79
33454;BME280;39400;49.744;7.012;2023-04-26T11:01:38;95978.59;;;10.15;69.83
33454;BME280;39400;49.744;7.012;2023-04-26T11:04:06;95980.91;;;9.95;65.88
33454;BME280;39400;49.744;7.012;2023-04-26T11:06:51;95977.28;;;9.66;66.62
33454;BME280;39400;49.744;7.012;2023-04-26T11:09:36;95975.78;;;9.86;67.11
33454;BME280;39400;49.744;7.012;2023-04-26T11:12:10;95973.00;;;9.79;69.11
33454;BME280;39400;49.744;7.012;2023-04-26T11:14:35;95963.59;;;9.80;69.62
33454;BME280;39400;49.744;7.012;2023-04-26T11:17:08;95966.75;;;9.82;67.59
33454;BME280;39400;49.744;7.012;2023-04-26T11:19:34;95965.50;;;9.69;63.84
33454;BME280;39400;49.744;7.012;2023-04-26T11:21:59;95972.63;;;9.84;65.60
33454;BME280;39400;49.744;7.012;2023-04-26T11:24:26;95962.00;;;9.72;64.21
33454;BME280;39400;49.744;7.012;2023-04-26T11:26:52;95951.78;;;9.69;64.69
33454;BME280;39400;49.744;7.012;2023-04-26T11:29:18;95958.94;;;10.02;66.77
33454;BME280;39400;49.744;7.012;2023-04-26T11:31:50;95952.69;;;10.23;63.38
33454;BME280;39400;49.744;7.012;2023-04-26T11:34:15;95964.13;;;10.32;62.98
33454;BME280;39400;49.744;7.012;2023-04-26T11:36:40;95956.25;;;10.59;63.00
33454;BME280;39400;49.744;7.012;2023-04-26T11:39:08;95953.50;;;10.59;64.77
33454;BME280;39400;49.744;7.012;2023-04-26T11:41:33;95961.31;;;11.04;63.46
33454;BME280;39400;49.744;7.012;2023-04-26T11:43:59;95963.97;;;11.39;63.83
33454;BME280;39400;49.744;7.012;2023-04-26T11:46:24;95954.88;;;11.46;59.74
33454;BME280;39400;49.744;7.012;2023-04-26T11:48:50;95952.66;;;11.16;59.94
33454;BME280;39400;49.744;7.012;2023-04-26T11:51:16;95958.00;;;11.59;64.54
33454;BME280;39400;49.744;7.012;2023-04-26T11:53:41;95950.19;;;11.50;59.57
33454;BME280;39400;49.744;7.012;2023-04-26T11:56:17;95949.41;;;11.39;62.31
33454;BME280;39400;49.744;7.012;2023-04-26T11:58:47;95949.38;;;11.50;59.97
33454;BME280;39400;49.744;7.012;2023-04-26T12:03:48;95941.53;;;11.45;62.70
33454;BME280;39400;49.744;7.012;2023-04-26T12:06:14;95947.47;;;11.43;60.94
33454;BME280;39400;49.744;7.012;2023-04-26T12:08:39;95948.28;;;11.29;60.16
33454;BME280;39400;49.744;7.012;2023-04-26T12:11:05;95949.06;;;11.30;58.51
33454;BME280;39400;49.744;7.012;2023-04-26T12:13:30;95953.41;;;11.20;59.08
33454;BME280;39400;49.744;7.012;2023-04-26T12:15:55;95953.47;;;11.06;60.56
33454;BME280;39400;49.744;7.012;2023-04-26T12:18:21;95947.16;;;11.09;61.48
33454;BME280;39400;49.744;7.012;2023-04-26T12:20:57;95945.94;;;11.24;58.10
33454;BME280;39400;49.744;7.012;2023-04-26T12:23:22;95947.97;;;11.06;57.29
33454;BME280;39400;49.744;7.012;2023-04-26T12:25:55;95940.78;;;11.40;56.76
33454;BME280;39400;49.744;7.012;2023-04-26T12:28:22;95944.91;;;11.84;57.48
33454;BME280;39400;49.744;7.012;2023-04-26T12:30:50;95945.31;;;11.86;55.83
33454;BME280;39400;49.744;7.012;2023-04-26T12:33:15;95939.88;;;11.65;56.16
33454;BME280;39400;49.744;7.012;2023-04-26T12:35:41;95935.56;;;11.64;57.09
33454;BME280;39400;49.744;7.012;2023-04-26T12:38:06;95939.81;;;11.76;58.09
33454;BME280;39400;49.744;7.012;2023-04-26T12:40:32;95944.50;;;11.89;56.34
33454;BME280;39400;49.744;7.012;2023-04-26T12:42:57;95937.97;;;11.55;58.39
33454;BME280;39400;49.744;7.012;2023-04-26T12:45:23;95949.34;;;11.53;56.88
33454;BME280;39400;49.744;7.012;2023-04-26T12:47:49;95947.75;;;11.63;55.55
33454;BME280;39400;49.744;7.012;2023-04-26T12:50:14;95955.41;;;11.16;56.10
33454;BME280;39400;49.744;7.012;2023-04-26T12:52:43;95950.22;;;11.29;59.05
33454;BME280;39400;49.744;7.012;2023-04-26T12:55:10;95958.03;;;11.48;56.13
33454;BME280;39400;49.744;7.012;2023-04-26T12:57:36;95950.50;;;11.63;56.66
33454;BME280;39400;49.744;7.012;2023-04-26T13:00:06;95944.53;;;11.79;55.06
33454;BME280;39400;49.744;7.012;2023-04-26T13:02:32;95943.72;;;11.89;55.75
33454;BME280;39400;49.744;7.012;2023-04-26T13:04:58;95942.75;;;12.17;57.23
33454;BME280;39400;49.744;7.012;2023-04-26T13:07:23;95956.78;;;12.41;53.58
33454;BME280;39400;49.744;7.012;2023-04-26T13:09:48;95949.16;;;12.03;53.71
33454;BME280;39400;49.744;7.012;2023-04-26T13:12:14;95949.09;;;12.10;55.58
33454;BME280;39400;49.744;7.012;2023-04-26T13:14:39;95942.81;;;12.10;54.71
33454;BME280;39400;49.744;7.012;2023-04-26T13:17:05;95938.00;;;12.21;60.33
33454;BME280;39400;49.744;7.012;2023-04-26T13:19:30;95929.97;;;12.45;54.81